createdAt,value
2023-01-21T00:02:27.012Z,27.10
2023-01-21T00:05:01.859Z,27.10
2023-01-21T00:07:31.175Z,27.08
2023-01-21T00:10:00.346Z,27.07
2023-01-21T00:12:31.797Z,27.03
2023-01-21T00:15:01.044Z,27.01
2023-01-21T00:17:31.607Z,27.01
2023-01-21T00:20:00.886Z,27.00
2023-01-21T00:22:30.288Z,26.97
2023-01-21T00:24:59.605Z,26.99
2023-01-21T00:27:28.982Z,26.94
2023-01-21T00:29:58.315Z,26.95
2023-01-21T00:32:27.713Z,26.96
2023-01-21T00:34:57.036Z,26.93
2023-01-21T00:37:26.408Z,26.90
2023-01-21T00:39:55.754Z,26.90
2023-01-21T00:42:25.345Z,26.87
2023-01-21T00:44:54.615Z,26.86
2023-01-21T00:47:24.255Z,26.89
2023-01-21T00:49:54.406Z,26.86
2023-01-21T00:52:24.239Z,26.90
2023-01-21T00:54:54.240Z,26.89
2023-01-21T00:57:24.278Z,26.89
2023-01-21T00:59:54.578Z,26.88
2023-01-21T01:02:24.301Z,26.89
2023-01-21T01:04:54.228Z,26.83
2023-01-21T01:07:24.328Z,26.87
2023-01-21T01:09:54.427Z,26.86
2023-01-21T01:12:24.319Z,26.88
2023-01-21T01:14:54.311Z,26.86
2023-01-21T01:17:24.297Z,26.91
2023-01-21T01:19:54.411Z,26.90
2023-01-21T01:22:24.360Z,26.88
2023-01-21T01:24:54.373Z,26.89
2023-01-21T01:27:24.371Z,26.88
2023-01-21T01:29:54.363Z,26.89
2023-01-21T01:32:26.706Z,26.87
2023-01-21T01:34:56.076Z,26.85
2023-01-21T01:37:25.369Z,26.85
2023-01-21T01:39:55.360Z,26.78
2023-01-21T01:42:24.793Z,26.80
2023-01-21T01:45:03.411Z,26.83
2023-01-21T01:47:34.110Z,26.81
2023-01-21T01:50:03.399Z,26.83
2023-01-21T01:52:32.565Z,26.81
2023-01-21T01:55:02.027Z,26.83
2023-01-21T01:57:35.783Z,26.80
2023-01-21T02:00:05.823Z,26.79
2023-01-21T02:02:35.045Z,26.78
2023-01-21T02:05:07.983Z,26.58
2023-01-21T02:07:41.583Z,26.60
2023-01-21T02:10:11.739Z,26.60
2023-01-21T02:12:41.355Z,26.61
2023-01-21T02:15:10.935Z,26.68
2023-01-21T02:18:02.083Z,26.70
2023-01-21T02:20:32.720Z,26.74
2023-01-21T02:23:03.267Z,26.76
2023-01-21T02:25:36.965Z,26.81
2023-01-21T02:28:26.038Z,26.83
2023-01-21T02:31:09.632Z,26.87
2023-01-21T02:33:40.045Z,26.89
2023-01-21T02:36:28.747Z,26.95
2023-01-21T02:39:05.591Z,26.96
2023-01-21T02:41:39.063Z,27.02
2023-01-21T02:44:19.023Z,27.07
2023-01-21T02:46:49.687Z,27.08
2023-01-21T02:49:26.052Z,27.10
2023-01-21T02:51:55.530Z,27.09
2023-01-21T02:54:47.265Z,27.10
2023-01-21T02:57:16.976Z,27.06
2023-01-21T02:59:47.425Z,27.06
2023-01-21T03:02:36.276Z,27.05
2023-01-21T03:05:07.939Z,27.04
2023-01-21T03:07:37.737Z,27.04
2023-01-21T03:10:08.392Z,27.03
2023-01-21T03:12:45.220Z,27.02
2023-01-21T03:15:33.052Z,27.02
2023-01-21T03:18:03.593Z,27.04
2023-01-21T03:20:33.691Z,27.01
2023-01-21T03:23:04.429Z,27.02
2023-01-21T03:25:34.376Z,27.00
2023-01-21T03:28:04.237Z,27.00
2023-01-21T03:30:33.441Z,26.99
2023-01-21T03:33:02.737Z,26.96
2023-01-21T03:35:33.356Z,26.97
2023-01-21T03:38:13.038Z,26.91
2023-01-21T03:40:46.768Z,26.80
2023-01-21T03:43:16.059Z,26.81
2023-01-21T03:45:52.094Z,26.82
2023-01-21T03:48:25.819Z,26.82
2023-01-21T03:50:57.023Z,26.83
2023-01-21T03:53:26.291Z,26.83
2023-01-21T03:55:55.530Z,26.87
2023-01-21T03:58:25.215Z,26.88
2023-01-21T04:00:54.759Z,26.89
2023-01-21T04:03:24.680Z,26.91
2023-01-21T04:05:54.964Z,26.95
2023-01-21T04:08:24.711Z,27.01
2023-01-21T04:10:53.903Z,27.03
2023-01-21T04:13:24.088Z,27.03
2023-01-21T04:15:53.717Z,27.02
2023-01-21T04:18:26.214Z,27.03
2023-01-21T04:20:55.702Z,26.99
2023-01-21T04:23:25.632Z,27.00
2023-01-21T04:25:55.527Z,27.01
2023-01-21T04:28:25.696Z,27.01
2023-01-21T04:30:55.947Z,26.97
2023-01-21T04:33:25.236Z,26.97
2023-01-21T04:35:56.193Z,26.95
2023-01-21T04:38:25.652Z,26.93
2023-01-21T04:40:55.668Z,26.93
2023-01-21T04:43:25.804Z,26.92
2023-01-21T04:45:55.577Z,26.88
2023-01-21T04:48:25.738Z,26.89
2023-01-21T04:50:55.768Z,26.86
2023-01-21T04:53:25.670Z,26.84
2023-01-21T04:55:55.691Z,26.83
2023-01-21T04:58:25.690Z,26.82
2023-01-21T05:00:56.858Z,26.82
2023-01-21T05:03:26.318Z,26.82
2023-01-21T05:05:55.786Z,26.79
2023-01-21T05:08:25.603Z,26.77
2023-01-21T05:10:55.610Z,26.76
2023-01-21T05:13:25.849Z,26.75
2023-01-21T05:15:55.058Z,26.73
2023-01-21T05:18:24.881Z,26.71
2023-01-21T05:20:55.809Z,26.71
2023-01-21T05:23:25.929Z,26.71
2023-01-21T05:25:55.847Z,26.69
2023-01-21T05:28:25.686Z,26.69
2023-01-21T05:30:55.881Z,26.65
2023-01-21T05:33:27.177Z,26.66
2023-01-21T05:35:56.531Z,26.64
2023-01-21T05:38:25.718Z,26.63
2023-01-21T05:40:59.147Z,26.64
2023-01-21T05:43:28.322Z,26.60
2023-01-21T05:45:57.685Z,26.60
2023-01-21T05:48:26.982Z,26.58
2023-01-21T05:50:58.198Z,26.59
2023-01-21T05:53:26.830Z,26.59
2023-01-21T05:55:56.402Z,26.57
2023-01-21T05:58:25.853Z,26.54
2023-01-21T06:00:55.816Z,26.53
2023-01-21T06:03:25.860Z,26.51
2023-01-21T06:05:55.892Z,26.51
2023-01-21T06:08:25.902Z,26.52
2023-01-21T06:10:57.446Z,26.49
2023-01-21T06:13:26.848Z,26.49
2023-01-21T06:15:57.292Z,26.49
2023-01-21T06:18:26.577Z,26.50
2023-01-21T06:20:55.896Z,26.48
2023-01-21T06:23:25.862Z,26.46
2023-01-21T06:25:55.403Z,26.46
2023-01-21T06:28:24.983Z,26.47
2023-01-21T06:30:55.069Z,26.45
2023-01-21T06:33:25.315Z,26.44
2023-01-21T06:35:55.031Z,26.43
2023-01-21T06:38:25.023Z,26.44
2023-01-21T06:40:55.081Z,26.43
2023-01-21T06:43:24.963Z,26.41
2023-01-21T06:45:55.081Z,26.40
2023-01-21T06:48:25.101Z,26.38
2023-01-21T06:50:55.036Z,26.38
2023-01-21T06:53:24.986Z,26.39
2023-01-21T06:55:55.089Z,26.36
2023-01-21T06:58:25.191Z,26.36
2023-01-21T07:00:56.469Z,26.36
2023-01-21T07:03:25.851Z,26.32
2023-01-21T07:05:55.985Z,26.34
2023-01-21T07:08:25.916Z,26.34
2023-01-21T07:10:55.992Z,26.32
2023-01-21T07:13:26.041Z,26.33
2023-01-21T07:15:55.685Z,26.31
2023-01-21T07:18:25.182Z,26.30
2023-01-21T07:20:55.079Z,26.30
2023-01-21T07:23:25.096Z,26.30
2023-01-21T07:25:55.551Z,26.28
2023-01-21T07:28:25.377Z,26.27
2023-01-21T07:30:54.654Z,26.27
2023-01-21T07:33:24.756Z,26.28
2023-01-21T07:35:54.235Z,26.23
2023-01-21T07:38:24.316Z,26.26
2023-01-21T07:40:54.210Z,26.25
2023-01-21T07:43:24.348Z,26.25
2023-01-21T07:45:54.239Z,26.23
2023-01-21T07:48:23.962Z,26.22
2023-01-21T07:50:53.386Z,26.24
2023-01-21T07:53:23.396Z,26.25
2023-01-21T07:55:53.458Z,26.25
2023-01-21T07:58:23.282Z,26.25
2023-01-21T08:00:53.505Z,26.24
2023-01-21T08:03:24.291Z,26.24
2023-01-21T08:05:57.019Z,26.23
2023-01-21T08:08:26.295Z,26.24
2023-01-21T08:10:57.669Z,26.21
2023-01-21T08:13:26.952Z,26.21
2023-01-21T08:15:56.741Z,26.20
2023-01-21T08:18:26.288Z,26.20
2023-01-21T08:20:59.340Z,26.21
2023-01-21T08:23:28.611Z,26.21
2023-01-21T08:25:57.906Z,26.20
2023-01-21T08:28:27.173Z,26.19
2023-01-21T08:30:56.468Z,26.21
2023-01-21T08:33:26.220Z,26.21
2023-01-21T08:35:57.575Z,26.23
2023-01-21T08:38:26.875Z,26.19
2023-01-21T08:40:58.055Z,26.21
2023-01-21T08:43:27.555Z,26.21
2023-01-21T08:46:01.365Z,26.21
2023-01-21T08:48:30.906Z,26.20
2023-01-21T08:51:00.792Z,26.21
2023-01-21T08:53:30.504Z,26.23
2023-01-21T08:56:03.938Z,26.20
2023-01-21T08:58:33.262Z,26.20
2023-01-21T09:01:03.937Z,26.22
2023-01-21T09:03:33.176Z,26.21
2023-01-21T09:06:03.154Z,26.21
2023-01-21T09:08:32.346Z,26.18
2023-01-21T09:11:04.711Z,26.22
2023-01-21T09:13:38.743Z,26.19
2023-01-21T09:16:11.020Z,26.20
2023-01-21T09:18:40.261Z,26.20
2023-01-21T09:21:09.466Z,26.22
2023-01-21T09:23:38.836Z,26.20
2023-01-21T09:26:12.215Z,26.21
2023-01-21T09:28:43.111Z,26.21
2023-01-21T09:31:12.883Z,26.21
2023-01-21T09:33:42.752Z,26.19
2023-01-21T09:36:13.331Z,26.18
2023-01-21T09:38:45.867Z,26.20
2023-01-21T09:41:16.440Z,26.20
2023-01-21T09:43:46.628Z,26.21
2023-01-21T09:46:19.934Z,26.18
2023-01-21T09:48:49.614Z,26.20
2023-01-21T09:51:22.912Z,26.20
2023-01-21T09:53:53.567Z,26.20
2023-01-21T09:56:33.809Z,26.20
2023-01-21T09:59:21.060Z,26.20
2023-01-21T10:01:50.172Z,26.22
2023-01-21T10:04:23.849Z,26.23
2023-01-21T10:06:55.593Z,26.23
2023-01-21T10:09:32.900Z,26.23
2023-01-21T10:12:20.002Z,26.22
2023-01-21T10:15:07.231Z,26.22
2023-01-21T10:17:40.856Z,26.25
2023-01-21T10:20:23.541Z,26.26
2023-01-21T10:23:06.234Z,26.27
2023-01-21T10:25:35.845Z,26.26
2023-01-21T10:28:06.577Z,26.27
2023-01-21T10:30:40.369Z,26.26
2023-01-21T10:33:11.042Z,26.31
2023-01-21T10:35:47.484Z,26.29
2023-01-21T10:38:23.921Z,26.29
2023-01-21T10:40:56.944Z,26.30
2023-01-21T10:43:37.208Z,26.33
2023-01-21T10:46:10.630Z,26.34
2023-01-21T10:48:41.284Z,26.34
2023-01-21T10:51:21.061Z,26.35
2023-01-21T10:53:51.615Z,26.33
2023-01-21T10:56:22.246Z,26.35
2023-01-21T10:58:54.515Z,26.36
2023-01-21T11:01:24.989Z,26.37
2023-01-21T11:03:55.578Z,26.39
2023-01-21T11:06:25.768Z,26.37
2023-01-21T11:09:00.337Z,26.41
2023-01-21T11:11:30.353Z,26.42
2023-01-21T11:13:59.624Z,26.43
2023-01-21T11:16:36.398Z,26.41
2023-01-21T11:19:07.134Z,26.43
2023-01-21T11:21:36.432Z,26.43
2023-01-21T11:24:06.302Z,26.42
2023-01-21T11:26:36.309Z,26.45
2023-01-21T11:29:12.978Z,26.42
2023-01-21T11:31:42.678Z,26.43
2023-01-21T11:34:18.611Z,26.42
2023-01-21T11:37:00.287Z,26.46
2023-01-21T11:39:30.053Z,26.43
2023-01-21T11:41:59.732Z,26.44
2023-01-21T11:44:28.987Z,26.46
2023-01-21T11:46:58.292Z,26.44
2023-01-21T11:49:32.084Z,26.49
2023-01-21T11:52:02.637Z,26.47
2023-01-21T11:54:31.859Z,26.47
2023-01-21T11:57:01.982Z,26.46
2023-01-21T11:59:35.283Z,26.49
2023-01-21T12:02:08.372Z,26.47
2023-01-21T12:04:37.525Z,26.52
2023-01-21T12:07:07.063Z,26.55
2023-01-21T12:09:36.355Z,26.63
2023-01-21T12:12:09.877Z,26.70
2023-01-21T12:14:46.468Z,26.81
2023-01-21T12:17:17.194Z,27.10
2023-01-21T12:19:48.008Z,27.29
2023-01-21T12:22:21.548Z,27.44
2023-01-21T12:25:10.514Z,27.52
2023-01-21T12:27:41.233Z,27.60
2023-01-21T12:30:11.858Z,27.66
2023-01-21T12:33:00.775Z,27.71
2023-01-21T12:35:37.906Z,27.73
2023-01-21T12:38:13.023Z,27.79
2023-01-21T12:40:58.187Z,27.80
2023-01-21T12:43:31.703Z,27.85
2023-01-21T12:46:02.327Z,27.83
2023-01-21T12:48:36.018Z,27.80
2023-01-21T12:51:06.835Z,27.77
2023-01-21T12:53:37.469Z,27.78
2023-01-21T12:56:08.993Z,27.80
2023-01-21T12:58:45.510Z,27.79
2023-01-21T13:01:15.486Z,27.73
2023-01-21T13:04:02.633Z,27.71
2023-01-21T13:06:51.954Z,27.64
2023-01-21T13:09:05.558Z,27.62
2023-01-21T13:11:38.986Z,27.62
2023-01-21T13:14:13.799Z,27.66
2023-01-21T13:16:53.712Z,27.61
2023-01-21T13:19:23.480Z,27.58
2023-01-21T13:21:54.888Z,27.54
2023-01-21T13:24:41.635Z,27.52
2023-01-21T13:27:15.403Z,27.53
2023-01-21T13:29:49.219Z,27.49
2023-01-21T13:32:29.164Z,27.48
2023-01-21T13:35:07.101Z,27.46
2023-01-21T13:37:37.807Z,27.45
2023-01-21T13:40:17.541Z,27.49
2023-01-21T13:42:54.464Z,27.54
2023-01-21T13:45:25.812Z,27.53
2023-01-21T13:48:14.426Z,27.49
2023-01-21T13:51:02.092Z,27.45
2023-01-21T13:53:38.940Z,27.44
2023-01-21T13:56:12.449Z,27.44
2023-01-21T13:58:43.056Z,27.40
2023-01-21T14:01:13.843Z,27.39
2023-01-21T14:03:44.611Z,27.37
2023-01-21T14:06:25.497Z,27.36
2023-01-21T14:08:56.721Z,27.32
2023-01-21T14:11:39.764Z,27.22
2023-01-21T14:14:16.343Z,27.18
2023-01-21T14:17:03.559Z,27.12
2023-01-21T14:19:37.352Z,27.10
2023-01-21T14:22:16.859Z,27.08
2023-01-21T14:24:47.322Z,27.05
2023-01-21T14:27:18.008Z,27.04
2023-01-21T14:29:51.447Z,27.02
2023-01-21T14:32:25.138Z,26.99
2023-01-21T14:34:59.590Z,26.99
2023-01-21T14:37:33.388Z,26.96
2023-01-21T14:40:07.080Z,26.96
2023-01-21T14:42:43.459Z,26.94
2023-01-21T14:45:13.960Z,26.94
2023-01-21T14:47:47.464Z,26.94
2023-01-21T14:50:34.735Z,26.94
2023-01-21T14:53:05.529Z,26.94
2023-01-21T14:55:35.149Z,26.92
2023-01-21T14:58:04.391Z,26.89
2023-01-21T15:00:34.510Z,26.90
2023-01-21T15:03:08.286Z,26.90
2023-01-21T15:05:45.623Z,26.90
2023-01-21T15:08:19.083Z,26.87
2023-01-21T15:10:49.644Z,26.85
2023-01-21T15:13:20.123Z,26.87
2023-01-21T15:16:07.731Z,26.84
2023-01-21T15:18:38.449Z,26.82
2023-01-21T15:21:25.375Z,26.74
2023-01-21T15:23:55.518Z,26.82
2023-01-21T15:26:34.761Z,26.83
2023-01-21T15:29:23.446Z,26.84
2023-01-21T15:31:52.855Z,26.84
2023-01-21T15:34:22.233Z,26.85
2023-01-21T15:36:53.107Z,26.86
2023-01-21T15:39:23.769Z,26.88
2023-01-21T15:42:00.864Z,26.87
2023-01-21T15:44:34.779Z,26.87
2023-01-21T15:47:21.625Z,26.88
2023-01-21T15:50:08.603Z,26.89
2023-01-21T15:52:44.994Z,26.90
2023-01-21T15:55:21.404Z,26.91
2023-01-21T15:57:51.857Z,26.91
2023-01-21T16:00:38.656Z,26.91
2023-01-21T16:03:27.320Z,26.93
2023-01-21T16:06:04.530Z,26.94
2023-01-21T16:08:41.014Z,26.93
2023-01-21T16:11:11.926Z,26.94
2023-01-21T16:13:49.332Z,26.95
2023-01-21T16:16:20.008Z,26.94
2023-01-21T16:19:00.269Z,26.97
2023-01-21T16:21:34.012Z,26.99
2023-01-21T16:24:04.642Z,27.00
2023-01-21T16:26:33.906Z,27.00
2023-01-21T16:29:02.991Z,27.00
2023-01-21T16:31:32.405Z,26.95
2023-01-21T16:34:01.690Z,26.96
2023-01-21T16:36:32.256Z,26.98
2023-01-21T16:39:02.952Z,26.97
2023-01-21T16:41:32.125Z,26.97
2023-01-21T16:44:01.624Z,26.98
2023-01-21T16:46:32.992Z,27.00
2023-01-21T16:49:02.356Z,26.98
2023-01-21T16:51:34.271Z,26.97
2023-01-21T16:54:22.882Z,26.99
2023-01-21T16:56:56.316Z,27.03
2023-01-21T16:59:32.699Z,27.01
2023-01-21T17:02:01.946Z,27.04
2023-01-21T17:04:31.201Z,27.07
2023-01-21T17:07:00.351Z,27.04
2023-01-21T17:09:30.876Z,27.01
2023-01-21T17:12:00.089Z,27.04
2023-01-21T17:14:29.652Z,27.04
2023-01-21T17:16:58.894Z,27.04
2023-01-21T17:19:37.653Z,27.05
2023-01-21T17:22:08.376Z,27.06
2023-01-21T17:24:39.438Z,27.07
2023-01-21T17:27:09.795Z,27.03
2023-01-21T17:29:39.032Z,27.04
2023-01-21T17:32:08.898Z,27.04
2023-01-21T17:34:38.354Z,27.00
2023-01-21T17:37:09.016Z,27.05
2023-01-21T17:39:49.030Z,27.02
2023-01-21T17:42:24.928Z,27.02
2023-01-21T17:44:55.709Z,26.99
2023-01-21T17:47:32.317Z,26.96
2023-01-21T17:50:08.911Z,26.94
2023-01-21T17:52:38.169Z,26.94
2023-01-21T17:55:14.637Z,26.97
2023-01-21T17:57:43.895Z,27.03
2023-01-21T18:00:29.346Z,27.02
2023-01-21T18:02:59.006Z,27.04
2023-01-21T18:05:28.240Z,27.01
2023-01-21T18:07:57.588Z,27.04
2023-01-21T18:10:30.702Z,27.05
2023-01-21T18:12:59.938Z,26.97
2023-01-21T18:15:29.461Z,27.06
2023-01-21T18:17:59.030Z,27.07
2023-01-21T18:20:28.886Z,27.09
2023-01-21T18:22:58.468Z,27.03
2023-01-21T18:25:28.235Z,27.06
2023-01-21T18:27:58.155Z,27.04
2023-01-21T18:30:29.165Z,26.76
2023-01-21T18:32:58.652Z,26.79
2023-01-21T18:35:28.592Z,26.81
2023-01-21T18:37:58.359Z,26.83
2023-01-21T18:40:28.278Z,26.89
2023-01-21T18:42:58.303Z,26.91
2023-01-21T18:45:28.511Z,26.96
2023-01-21T18:47:58.589Z,27.01
2023-01-21T18:50:29.288Z,27.06
2023-01-21T18:52:58.567Z,27.10
2023-01-21T18:55:28.473Z,27.15
2023-01-21T18:57:58.305Z,27.19
2023-01-21T19:00:35.811Z,27.22
2023-01-21T19:03:05.075Z,27.26
2023-01-21T19:05:38.074Z,27.27
2023-01-21T19:08:08.177Z,27.33
2023-01-21T19:10:37.546Z,27.35
2023-01-21T19:13:06.805Z,27.36
2023-01-21T19:15:36.071Z,27.38
2023-01-21T19:18:05.467Z,27.43
2023-01-21T19:20:36.034Z,27.44
2023-01-21T19:23:05.365Z,27.45
2023-01-21T19:25:34.695Z,27.48
2023-01-21T19:28:03.963Z,27.47
2023-01-21T19:30:33.478Z,27.50
2023-01-21T19:33:02.756Z,27.48
2023-01-21T19:35:35.961Z,27.48
2023-01-21T19:38:05.355Z,27.47
2023-01-21T19:40:37.167Z,27.47
2023-01-21T19:43:06.330Z,27.46
2023-01-21T19:45:35.738Z,27.47
2023-01-21T19:48:05.060Z,27.48
2023-01-21T19:50:34.310Z,27.49
2023-01-21T19:53:03.567Z,27.48
2023-01-21T19:55:32.897Z,27.48
2023-01-21T19:58:03.246Z,27.50
2023-01-21T20:00:33.862Z,27.48
2023-01-21T20:03:03.112Z,27.50
2023-01-21T20:05:33.951Z,27.52
2023-01-21T20:08:03.156Z,27.50
2023-01-21T20:10:32.586Z,27.52
2023-01-21T20:13:01.900Z,27.50
2023-01-21T20:15:32.144Z,27.51
2023-01-21T20:18:01.669Z,27.51
2023-01-21T20:20:31.736Z,27.50
2023-01-21T20:23:01.236Z,27.49
2023-01-21T20:25:31.977Z,27.49
2023-01-21T20:28:01.377Z,27.49
2023-01-21T20:30:32.519Z,27.49
2023-01-21T20:33:04.857Z,27.49
2023-01-21T20:35:33.932Z,27.49
2023-01-21T20:38:03.231Z,27.51
2023-01-21T20:40:32.628Z,27.51
2023-01-21T20:43:01.989Z,27.49
2023-01-21T20:45:32.107Z,27.48
2023-01-21T20:48:01.928Z,27.49
2023-01-21T20:50:33.025Z,27.48
2023-01-21T20:53:02.326Z,27.49
2023-01-21T20:55:32.272Z,27.52
2023-01-21T20:58:02.287Z,27.52
2023-01-21T21:00:32.831Z,27.51
2023-01-21T21:03:02.319Z,27.54
2023-01-21T21:05:31.544Z,27.53
2023-01-21T21:08:00.738Z,27.50
2023-01-21T21:10:31.341Z,27.52
2023-01-21T21:13:00.539Z,27.53
2023-01-21T21:15:30.008Z,27.51
2023-01-21T21:17:59.257Z,27.51
2023-01-21T21:20:30.048Z,27.52
2023-01-21T21:22:59.213Z,27.52
2023-01-21T21:25:30.445Z,27.53
2023-01-21T21:27:59.907Z,27.55
2023-01-21T21:30:30.529Z,27.56
2023-01-21T21:33:00.517Z,27.56
2023-01-21T21:35:31.043Z,27.58
2023-01-21T21:38:00.796Z,27.58
2023-01-21T21:40:33.394Z,27.56
2023-01-21T21:43:20.368Z,27.59
2023-01-21T21:46:07.676Z,27.59
2023-01-21T21:48:40.028Z,27.59
2023-01-21T21:51:09.703Z,27.58
2023-01-21T21:53:39.178Z,27.60
2023-01-21T21:56:09.914Z,27.59
2023-01-21T21:58:39.208Z,27.52
2023-01-21T22:01:09.381Z,27.47
2023-01-21T22:03:38.832Z,27.49
2023-01-21T22:06:08.287Z,27.51
2023-01-21T22:08:38.086Z,27.56
2023-01-21T22:11:08.422Z,27.58
2023-01-21T22:13:38.523Z,27.62
2023-01-21T22:16:08.158Z,27.67
2023-01-21T22:18:37.428Z,27.70
2023-01-21T22:21:07.458Z,27.73
2023-01-21T22:23:37.339Z,27.81
2023-01-21T22:26:07.117Z,27.83
2023-01-21T22:28:36.492Z,27.89
2023-01-21T22:31:07.450Z,27.91
2023-01-21T22:33:36.991Z,27.91
2023-01-21T22:36:09.793Z,27.84
2023-01-21T22:38:40.630Z,27.83
2023-01-21T22:41:10.005Z,27.83
2023-01-21T22:43:40.288Z,27.84
2023-01-21T22:46:09.621Z,27.83
2023-01-21T22:48:38.834Z,27.83
2023-01-21T22:51:08.270Z,27.83
2023-01-21T22:53:37.563Z,27.83
2023-01-21T22:56:07.070Z,27.80
2023-01-21T22:58:36.425Z,27.81
2023-01-21T23:01:05.868Z,27.82
2023-01-21T23:03:35.193Z,27.81
2023-01-21T23:06:05.967Z,27.81
2023-01-21T23:08:35.287Z,27.81
2023-01-21T23:11:05.085Z,27.83
2023-01-21T23:13:34.445Z,27.84
2023-01-21T23:16:03.946Z,27.85
2023-01-21T23:18:33.202Z,27.84
2023-01-21T23:21:02.617Z,27.84
2023-01-21T23:23:33.263Z,27.85
2023-01-21T23:26:03.478Z,27.85
2023-01-21T23:28:32.705Z,27.85
2023-01-21T23:31:03.540Z,27.85
2023-01-21T23:33:32.811Z,27.85
2023-01-21T23:36:02.091Z,27.85
2023-01-21T23:38:31.401Z,27.84
2023-01-21T23:41:00.793Z,27.84
2023-01-21T23:43:29.979Z,27.83
2023-01-21T23:45:59.797Z,27.85
2023-01-21T23:48:29.881Z,27.83
2023-01-21T23:51:05.467Z,27.84
2023-01-21T23:53:34.780Z,27.83
2023-01-21T23:56:14.604Z,27.81
2023-01-21T23:58:46.249Z,27.81
